sensor_id;sensor_type;location;lat;lon;timestamp;P1;durP1;ratioP1;P2;durP2;ratioP2
14738;SDS011;7461;52.440;13.540;2022-10-17T00:00:43;13.70;;;12.80;;
14738;SDS011;7461;52.440;13.540;2022-10-17T00:03:10;13.82;;;12.77;;
14738;SDS011;7461;52.440;13.540;2022-10-17T00:05:40;12.75;;;11.82;;
14738;SDS011;7461;52.440;13.540;2022-10-17T00:08:09;12.77;;;11.73;;
14738;SDS011;7461;52.440;13.540;2022-10-17T00:13:04;13.05;;;12.15;;
14738;SDS011;7461;52.440;13.540;2022-10-17T00:15:32;12.02;;;11.18;;
14738;SDS011;7461;52.440;13.540;2022-10-17T00:17:59;12.05;;;11.13;;
14738;SDS011;7461;52.440;13.540;2022-10-17T00:20:27;12.63;;;11.50;;
14738;SDS011;7461;52.440;13.540;2022-10-17T00:23:00;13.93;;;12.65;;
14738;SDS011;7461;52.440;13.540;2022-10-17T00:25:27;12.73;;;11.68;;
14738;SDS011;7461;52.440;13.540;2022-10-17T00:27:54;13.98;;;12.88;;
14738;SDS011;7461;52.440;13.540;2022-10-17T00:30:20;13.50;;;12.18;;
14738;SDS011;7461;52.440;13.540;2022-10-17T00:32:48;13.65;;;12.57;;
14738;SDS011;7461;52.440;13.540;2022-10-17T00:35:15;13.68;;;12.77;;
14738;SDS011;7461;52.440;13.540;2022-10-17T00:37:42;13.80;;;12.60;;
14738;SDS011;7461;52.440;13.540;2022-10-17T00:43:14;11.55;;;10.82;;
14738;SDS011;7461;52.440;13.540;2022-10-17T00:45:43;12.80;;;11.93;;
14738;SDS011;7461;52.440;13.540;2022-10-17T00:48:11;12.63;;;11.63;;
14738;SDS011;7461;52.440;13.540;2022-10-17T00:50:39;13.13;;;12.20;;
14738;SDS011;7461;52.440;13.540;2022-10-17T00:53:09;12.20;;;11.40;;
14738;SDS011;7461;52.440;13.540;2022-10-17T00:55:37;12.60;;;11.60;;
14738;SDS011;7461;52.440;13.540;2022-10-17T00:58:09;13.05;;;12.02;;
14738;SDS011;7461;52.440;13.540;2022-10-17T01:00:36;12.10;;;11.30;;
14738;SDS011;7461;52.440;13.540;2022-10-17T01:03:03;13.13;;;11.88;;
14738;SDS011;7461;52.440;13.540;2022-10-17T01:05:31;12.25;;;11.25;;
14738;SDS011;7461;52.440;13.540;2022-10-17T01:07:59;12.68;;;11.65;;
14738;SDS011;7461;52.440;13.540;2022-10-17T01:10:29;12.18;;;11.10;;
14738;SDS011;7461;52.440;13.540;2022-10-17T01:13:03;11.73;;;10.73;;
14738;SDS011;7461;52.440;13.540;2022-10-17T01:15:38;12.02;;;11.23;;
14738;SDS011;7461;52.440;13.540;2022-10-17T01:18:19;10.13;;;9.32;;
14738;SDS011;7461;52.440;13.540;2022-10-17T01:21:11;16.30;;;10.82;;
14738;SDS011;7461;52.440;13.540;2022-10-17T01:24:02;10.35;;;9.55;;
14738;SDS011;7461;52.440;13.540;2022-10-17T01:26:54;10.93;;;10.02;;
14738;SDS011;7461;52.440;13.540;2022-10-17T01:29:46;11.45;;;10.50;;
14738;SDS011;7461;52.440;13.540;2022-10-17T01:32:27;9.18;;;8.68;;
14738;SDS011;7461;52.440;13.540;2022-10-17T01:35:01;10.40;;;9.77;;
14738;SDS011;7461;52.440;13.540;2022-10-17T01:37:52;10.60;;;9.88;;
14738;SDS011;7461;52.440;13.540;2022-10-17T01:40:24;8.82;;;8.23;;
14738;SDS011;7461;52.440;13.540;2022-10-17T01:42:56;10.25;;;9.55;;
14738;SDS011;7461;52.440;13.540;2022-10-17T01:45:26;10.13;;;9.35;;
14738;SDS011;7461;52.440;13.540;2022-10-17T01:48:00;8.50;;;7.95;;
14738;SDS011;7461;52.440;13.540;2022-10-17T01:50:31;9.90;;;9.05;;
14738;SDS011;7461;52.440;13.540;2022-10-17T01:53:03;8.68;;;7.97;;
14738;SDS011;7461;52.440;13.540;2022-10-17T01:55:34;9.43;;;8.82;;
14738;SDS011;7461;52.440;13.540;2022-10-17T01:58:04;8.95;;;8.35;;
14738;SDS011;7461;52.440;13.540;2022-10-17T02:00:34;8.98;;;8.38;;
14738;SDS011;7461;52.440;13.540;2022-10-17T02:03:06;10.05;;;9.45;;
14738;SDS011;7461;52.440;13.540;2022-10-17T02:08:59;8.25;;;7.65;;
14738;SDS011;7461;52.440;13.540;2022-10-17T02:11:26;8.68;;;8.00;;
14738;SDS011;7461;52.440;13.540;2022-10-17T02:14:05;7.63;;;7.15;;
14738;SDS011;7461;52.440;13.540;2022-10-17T02:16:44;9.30;;;8.60;;
14738;SDS011;7461;52.440;13.540;2022-10-17T02:19:29;9.15;;;8.52;;
14738;SDS011;7461;52.440;13.540;2022-10-17T02:22:10;9.55;;;8.95;;
14738;SDS011;7461;52.440;13.540;2022-10-17T02:24:44;8.85;;;8.15;;
14738;SDS011;7461;52.440;13.540;2022-10-17T02:27:13;8.38;;;7.63;;
14738;SDS011;7461;52.440;13.540;2022-10-17T02:29:48;8.90;;;8.13;;
14738;SDS011;7461;52.440;13.540;2022-10-17T02:32:22;8.70;;;8.07;;
14738;SDS011;7461;52.440;13.540;2022-10-17T02:34:55;9.32;;;8.45;;
14738;SDS011;7461;52.440;13.540;2022-10-17T02:37:27;8.95;;;8.25;;
14738;SDS011;7461;52.440;13.540;2022-10-17T02:39:55;8.20;;;7.70;;
14738;SDS011;7461;52.440;13.540;2022-10-17T02:42:24;9.10;;;8.40;;
14738;SDS011;7461;52.440;13.540;2022-10-17T02:44:52;9.57;;;8.88;;
14738;SDS011;7461;52.440;13.540;2022-10-17T02:47:24;7.30;;;6.85;;
14738;SDS011;7461;52.440;13.540;2022-10-17T02:49:54;9.43;;;8.88;;
14738;SDS011;7461;52.440;13.540;2022-10-17T02:52:25;8.23;;;7.55;;
14738;SDS011;7461;52.440;13.540;2022-10-17T02:54:56;8.27;;;7.68;;
14738;SDS011;7461;52.440;13.540;2022-10-17T02:57:26;9.60;;;8.93;;
14738;SDS011;7461;52.440;13.540;2022-10-17T02:59:56;8.30;;;7.78;;
14738;SDS011;7461;52.440;13.540;2022-10-17T03:02:26;8.13;;;7.60;;
14738;SDS011;7461;52.440;13.540;2022-10-17T03:04:54;7.80;;;7.10;;
14738;SDS011;7461;52.440;13.540;2022-10-17T03:07:21;8.88;;;8.18;;
14738;SDS011;7461;52.440;13.540;2022-10-17T03:09:48;8.05;;;7.55;;
14738;SDS011;7461;52.440;13.540;2022-10-17T03:12:15;7.90;;;7.40;;
14738;SDS011;7461;52.440;13.540;2022-10-17T03:14:41;7.43;;;6.93;;
14738;SDS011;7461;52.440;13.540;2022-10-17T03:17:08;7.47;;;6.97;;
14738;SDS011;7461;52.440;13.540;2022-10-17T03:19:35;7.78;;;7.20;;
14738;SDS011;7461;52.440;13.540;2022-10-17T03:22:03;7.90;;;7.40;;
14738;SDS011;7461;52.440;13.540;2022-10-17T03:24:30;8.13;;;7.18;;
14738;SDS011;7461;52.440;13.540;2022-10-17T03:26:57;9.20;;;8.48;;
14738;SDS011;7461;52.440;13.540;2022-10-17T03:29:25;8.10;;;7.60;;
14738;SDS011;7461;52.440;13.540;2022-10-17T03:31:52;7.82;;;7.20;;
14738;SDS011;7461;52.440;13.540;2022-10-17T03:34:20;7.43;;;6.95;;
14738;SDS011;7461;52.440;13.540;2022-10-17T03:36:48;9.57;;;8.02;;
14738;SDS011;7461;52.440;13.540;2022-10-17T03:39:20;8.80;;;8.00;;
14738;SDS011;7461;52.440;13.540;2022-10-17T03:41:47;9.13;;;8.52;;
14738;SDS011;7461;52.440;13.540;2022-10-17T03:44:14;8.35;;;7.93;;
14738;SDS011;7461;52.440;13.540;2022-10-17T03:46:41;9.57;;;9.07;;
14738;SDS011;7461;52.440;13.540;2022-10-17T03:49:08;8.63;;;8.23;;
14738;SDS011;7461;52.440;13.540;2022-10-17T03:51:35;11.80;;;8.25;;
14738;SDS011;7461;52.440;13.540;2022-10-17T03:54:02;10.02;;;9.32;;
14738;SDS011;7461;52.440;13.540;2022-10-17T03:56:31;8.80;;;8.15;;
14738;SDS011;7461;52.440;13.540;2022-10-17T03:58:57;10.15;;;9.18;;
14738;SDS011;7461;52.440;13.540;2022-10-17T04:01:24;8.77;;;7.97;;
14738;SDS011;7461;52.440;13.540;2022-10-17T04:03:53;9.77;;;8.85;;
14738;SDS011;7461;52.440;13.540;2022-10-17T04:06:20;9.82;;;9.18;;
14738;SDS011;7461;52.440;13.540;2022-10-17T04:08:48;8.90;;;8.10;;
14738;SDS011;7461;52.440;13.540;2022-10-17T04:11:15;9.60;;;9.00;;
14738;SDS011;7461;52.440;13.540;2022-10-17T04:13:45;9.30;;;8.45;;
14738;SDS011;7461;52.440;13.540;2022-10-17T04:16:13;9.27;;;8.57;;
14738;SDS011;7461;52.440;13.540;2022-10-17T04:18:40;9.18;;;8.65;;
14738;SDS011;7461;52.440;13.540;2022-10-17T04:21:08;9.38;;;8.40;;
14738;SDS011;7461;52.440;13.540;2022-10-17T04:23:35;9.55;;;8.65;;
14738;SDS011;7461;52.440;13.540;2022-10-17T04:26:03;9.38;;;8.70;;
14738;SDS011;7461;52.440;13.540;2022-10-17T04:28:30;9.05;;;8.15;;
14738;SDS011;7461;52.440;13.540;2022-10-17T04:31:00;9.63;;;9.02;;
14738;SDS011;7461;52.440;13.540;2022-10-17T04:33:28;8.88;;;8.38;;
14738;SDS011;7461;52.440;13.540;2022-10-17T04:35:55;8.70;;;8.20;;
14738;SDS011;7461;52.440;13.540;2022-10-17T04:38:23;8.82;;;7.88;;
14738;SDS011;7461;52.440;13.540;2022-10-17T04:40:50;9.65;;;9.07;;
14738;SDS011;7461;52.440;13.540;2022-10-17T04:43:17;9.10;;;8.60;;
14738;SDS011;7461;52.440;13.540;2022-10-17T04:45:44;9.05;;;8.50;;
14738;SDS011;7461;52.440;13.540;2022-10-17T04:48:12;10.90;;;10.02;;
14738;SDS011;7461;52.440;13.540;2022-10-17T04:50:39;10.20;;;9.07;;
14738;SDS011;7461;52.440;13.540;2022-10-17T04:53:06;9.52;;;8.85;;
14738;SDS011;7461;52.440;13.540;2022-10-17T04:55:35;9.23;;;8.45;;
14738;SDS011;7461;52.440;13.540;2022-10-17T04:58:03;15.90;;;9.80;;
14738;SDS011;7461;52.440;13.540;2022-10-17T05:00:30;9.27;;;8.68;;
14738;SDS011;7461;52.440;13.540;2022-10-17T05:02:59;9.25;;;8.75;;
14738;SDS011;7461;52.440;13.540;2022-10-17T05:05:27;9.57;;;8.88;;
14738;SDS011;7461;52.440;13.540;2022-10-17T05:07:54;8.75;;;8.25;;
14738;SDS011;7461;52.440;13.540;2022-10-17T05:10:21;10.68;;;9.93;;
14738;SDS011;7461;52.440;13.540;2022-10-17T05:12:48;11.20;;;10.32;;
14738;SDS011;7461;52.440;13.540;2022-10-17T05:15:15;8.93;;;8.43;;
14738;SDS011;7461;52.440;13.540;2022-10-17T05:17:42;10.93;;;10.15;;
14738;SDS011;7461;52.440;13.540;2022-10-17T05:20:09;9.52;;;8.82;;
14738;SDS011;7461;52.440;13.540;2022-10-17T05:22:38;10.57;;;8.48;;
14738;SDS011;7461;52.440;13.540;2022-10-17T05:25:05;9.18;;;8.57;;
14738;SDS011;7461;52.440;13.540;2022-10-17T05:27:32;8.73;;;8.25;;
14738;SDS011;7461;52.440;13.540;2022-10-17T05:29:59;9.98;;;9.27;;
14738;SDS011;7461;52.440;13.540;2022-10-17T05:32:26;11.93;;;9.48;;
14738;SDS011;7461;52.440;13.540;2022-10-17T05:34:53;9.65;;;8.93;;
14738;SDS011;7461;52.440;13.540;2022-10-17T05:37:20;10.73;;;10.07;;
14738;SDS011;7461;52.440;13.540;2022-10-17T05:39:48;9.68;;;8.20;;
14738;SDS011;7461;52.440;13.540;2022-10-17T05:42:15;9.18;;;8.63;;
14738;SDS011;7461;52.440;13.540;2022-10-17T05:44:41;9.35;;;8.85;;
14738;SDS011;7461;52.440;13.540;2022-10-17T05:47:08;9.77;;;9.10;;
14738;SDS011;7461;52.440;13.540;2022-10-17T05:49:36;10.55;;;9.63;;
14738;SDS011;7461;52.440;13.540;2022-10-17T05:52:03;10.05;;;9.25;;
14738;SDS011;7461;52.440;13.540;2022-10-17T05:54:29;10.55;;;9.35;;
14738;SDS011;7461;52.440;13.540;2022-10-17T05:56:58;9.38;;;8.63;;
14738;SDS011;7461;52.440;13.540;2022-10-17T05:59:25;9.23;;;8.63;;
14738;SDS011;7461;52.440;13.540;2022-10-17T06:01:52;9.60;;;8.90;;
14738;SDS011;7461;52.440;13.540;2022-10-17T06:04:20;7.53;;;7.13;;
14738;SDS011;7461;52.440;13.540;2022-10-17T06:06:47;8.98;;;8.45;;
14738;SDS011;7461;52.440;13.540;2022-10-17T06:09:16;9.63;;;8.93;;
14738;SDS011;7461;52.440;13.540;2022-10-17T06:11:43;9.55;;;8.57;;
14738;SDS011;7461;52.440;13.540;2022-10-17T06:14:12;9.95;;;9.25;;
14738;SDS011;7461;52.440;13.540;2022-10-17T06:16:39;11.10;;;9.38;;
14738;SDS011;7461;52.440;13.540;2022-10-17T06:19:07;9.40;;;8.80;;
14738;SDS011;7461;52.440;13.540;2022-10-17T06:21:36;9.32;;;8.63;;
14738;SDS011;7461;52.440;13.540;2022-10-17T06:24:03;9.90;;;9.30;;
14738;SDS011;7461;52.440;13.540;2022-10-17T06:26:30;11.95;;;10.55;;
14738;SDS011;7461;52.440;13.540;2022-10-17T06:28:57;10.10;;;9.32;;
14738;SDS011;7461;52.440;13.540;2022-10-17T06:31:25;9.82;;;9.10;;
14738;SDS011;7461;52.440;13.540;2022-10-17T06:33:52;10.60;;;9.88;;
14738;SDS011;7461;52.440;13.540;2022-10-17T06:36:19;11.20;;;10.15;;
14738;SDS011;7461;52.440;13.540;2022-10-17T06:38:46;11.38;;;10.30;;
14738;SDS011;7461;52.440;13.540;2022-10-17T06:41:14;13.40;;;10.40;;
14738;SDS011;7461;52.440;13.540;2022-10-17T06:43:44;10.75;;;9.95;;
14738;SDS011;7461;52.440;13.540;2022-10-17T06:46:13;11.02;;;10.10;;
14738;SDS011;7461;52.440;13.540;2022-10-17T06:48:43;10.77;;;9.77;;
14738;SDS011;7461;52.440;13.540;2022-10-17T06:51:11;14.90;;;11.05;;
14738;SDS011;7461;52.440;13.540;2022-10-17T06:53:38;10.55;;;9.75;;
14738;SDS011;7461;52.440;13.540;2022-10-17T06:56:06;9.82;;;9.23;;
14738;SDS011;7461;52.440;13.540;2022-10-17T06:58:35;10.98;;;10.13;;
14738;SDS011;7461;52.440;13.540;2022-10-17T07:01:03;11.45;;;10.75;;
14738;SDS011;7461;52.440;13.540;2022-10-17T07:03:31;11.02;;;9.98;;
14738;SDS011;7461;52.440;13.540;2022-10-17T07:06:00;12.75;;;11.57;;
14738;SDS011;7461;52.440;13.540;2022-10-17T07:08:27;11.32;;;10.55;;
14738;SDS011;7461;52.440;13.540;2022-10-17T07:10:53;10.60;;;9.98;;
14738;SDS011;7461;52.440;13.540;2022-10-17T07:13:21;11.68;;;10.93;;
14738;SDS011;7461;52.440;13.540;2022-10-17T07:15:48;10.82;;;10.00;;
14738;SDS011;7461;52.440;13.540;2022-10-17T07:18:15;11.35;;;10.57;;
14738;SDS011;7461;52.440;13.540;2022-10-17T07:20:42;11.38;;;10.18;;
14738;SDS011;7461;52.440;13.540;2022-10-17T07:23:10;11.88;;;10.98;;
14738;SDS011;7461;52.440;13.540;2022-10-17T07:25:37;10.95;;;10.05;;
14738;SDS011;7461;52.440;13.540;2022-10-17T07:28:03;11.50;;;10.80;;
14738;SDS011;7461;52.440;13.540;2022-10-17T07:30:30;11.32;;;10.63;;
14738;SDS011;7461;52.440;13.540;2022-10-17T07:32:58;10.93;;;10.23;;
14738;SDS011;7461;52.440;13.540;2022-10-17T07:35:25;10.27;;;9.63;;
14738;SDS011;7461;52.440;13.540;2022-10-17T07:37:51;10.07;;;9.38;;
14738;SDS011;7461;52.440;13.540;2022-10-17T07:40:20;11.63;;;10.82;;
14738;SDS011;7461;52.440;13.540;2022-10-17T07:42:46;9.82;;;9.05;;
14738;SDS011;7461;52.440;13.540;2022-10-17T07:45:13;10.43;;;9.50;;
14738;SDS011;7461;52.440;13.540;2022-10-17T07:47:40;10.02;;;9.32;;
14738;SDS011;7461;52.440;13.540;2022-10-17T07:50:07;10.07;;;9.35;;
14738;SDS011;7461;52.440;13.540;2022-10-17T07:52:35;11.07;;;10.02;;
14738;SDS011;7461;52.440;13.540;2022-10-17T07:55:01;9.25;;;8.55;;
14738;SDS011;7461;52.440;13.540;2022-10-17T07:57:30;7.85;;;7.35;;
14738;SDS011;7461;52.440;13.540;2022-10-17T07:59:57;8.05;;;7.55;;
14738;SDS011;7461;52.440;13.540;2022-10-17T08:02:24;8.40;;;7.90;;
14738;SDS011;7461;52.440;13.540;2022-10-17T08:04:52;9.88;;;8.98;;
14738;SDS011;7461;52.440;13.540;2022-10-17T08:07:19;7.45;;;6.78;;
14738;SDS011;7461;52.440;13.540;2022-10-17T08:09:46;8.45;;;7.85;;
14738;SDS011;7461;52.440;13.540;2022-10-17T08:12:13;8.27;;;7.78;;
14738;SDS011;7461;52.440;13.540;2022-10-17T08:14:42;7.60;;;7.00;;
14738;SDS011;7461;52.440;13.540;2022-10-17T08:17:09;10.65;;;9.82;;
14738;SDS011;7461;52.440;13.540;2022-10-17T08:19:37;9.57;;;7.70;;
14738;SDS011;7461;52.440;13.540;2022-10-17T08:22:04;7.10;;;6.57;;
14738;SDS011;7461;52.440;13.540;2022-10-17T08:24:31;9.50;;;8.63;;
14738;SDS011;7461;52.440;13.540;2022-10-17T08:26:58;6.97;;;6.57;;
14738;SDS011;7461;52.440;13.540;2022-10-17T08:29:25;7.65;;;7.15;;
14738;SDS011;7461;52.440;13.540;2022-10-17T08:31:54;8.10;;;7.60;;
14738;SDS011;7461;52.440;13.540;2022-10-17T08:34:21;8.27;;;7.43;;
14738;SDS011;7461;52.440;13.540;2022-10-17T08:36:48;7.00;;;6.55;;
14738;SDS011;7461;52.440;13.540;2022-10-17T08:39:15;7.38;;;6.68;;
14738;SDS011;7461;52.440;13.540;2022-10-17T08:41:45;5.95;;;5.43;;
14738;SDS011;7461;52.440;13.540;2022-10-17T08:44:24;6.95;;;6.28;;
14738;SDS011;7461;52.440;13.540;2022-10-17T08:47:02;7.25;;;6.70;;
14738;SDS011;7461;52.440;13.540;2022-10-17T08:49:36;7.15;;;6.60;;
14738;SDS011;7461;52.440;13.540;2022-10-17T08:52:13;7.00;;;6.30;;
14738;SDS011;7461;52.440;13.540;2022-10-17T08:54:44;5.70;;;5.18;;
14738;SDS011;7461;52.440;13.540;2022-10-17T08:57:13;5.53;;;5.13;;
14738;SDS011;7461;52.440;13.540;2022-10-17T08:59:40;6.20;;;5.80;;
14738;SDS011;7461;52.440;13.540;2022-10-17T09:02:18;5.55;;;5.25;;
14738;SDS011;7461;52.440;13.540;2022-10-17T09:04:57;6.00;;;5.50;;
14738;SDS011;7461;52.440;13.540;2022-10-17T09:07:35;5.22;;;4.93;;
14738;SDS011;7461;52.440;13.540;2022-10-17T09:10:09;5.72;;;5.43;;
14738;SDS011;7461;52.440;13.540;2022-10-17T09:12:43;7.63;;;5.05;;
14738;SDS011;7461;52.440;13.540;2022-10-17T09:15:30;6.38;;;4.22;;
14738;SDS011;7461;52.440;13.540;2022-10-17T09:18:08;5.55;;;5.10;;
14738;SDS011;7461;52.440;13.540;2022-10-17T09:20:39;8.75;;;5.70;;
14738;SDS011;7461;52.440;13.540;2022-10-17T09:23:10;4.80;;;4.45;;
14738;SDS011;7461;52.440;13.540;2022-10-17T09:25:41;3.97;;;3.78;;
14738;SDS011;7461;52.440;13.540;2022-10-17T09:28:11;5.55;;;5.05;;
14738;SDS011;7461;52.440;13.540;2022-10-17T09:30:42;5.97;;;5.13;;
14738;SDS011;7461;52.440;13.540;2022-10-17T09:33:13;5.20;;;4.63;;
14738;SDS011;7461;52.440;13.540;2022-10-17T09:35:41;5.50;;;5.10;;
14738;SDS011;7461;52.440;13.540;2022-10-17T09:38:16;5.55;;;5.18;;
14738;SDS011;7461;52.440;13.540;2022-10-17T09:40:45;4.80;;;4.50;;
14738;SDS011;7461;52.440;13.540;2022-10-17T09:43:16;6.57;;;5.93;;
14738;SDS011;7461;52.440;13.540;2022-10-17T09:45:45;5.82;;;5.32;;
14738;SDS011;7461;52.440;13.540;2022-10-17T09:48:23;5.38;;;4.97;;
14738;SDS011;7461;52.440;13.540;2022-10-17T09:50:54;5.20;;;4.72;;
14738;SDS011;7461;52.440;13.540;2022-10-17T09:53:23;5.43;;;5.10;;
14738;SDS011;7461;52.440;13.540;2022-10-17T09:55:54;5.05;;;4.65;;
14738;SDS011;7461;52.440;13.540;2022-10-17T09:58:27;4.68;;;4.38;;
14738;SDS011;7461;52.440;13.540;2022-10-17T10:01:14;5.35;;;4.95;;
14738;SDS011;7461;52.440;13.540;2022-10-17T10:03:44;4.43;;;4.22;;
14738;SDS011;7461;52.440;13.540;2022-10-17T10:06:12;4.90;;;4.60;;
14738;SDS011;7461;52.440;13.540;2022-10-17T10:08:47;4.90;;;4.60;;
14738;SDS011;7461;52.440;13.540;2022-10-17T10:11:16;5.32;;;4.93;;
14738;SDS011;7461;52.440;13.540;2022-10-17T10:13:45;5.03;;;4.50;;
14738;SDS011;7461;52.440;13.540;2022-10-17T10:16:14;4.40;;;3.95;;
14738;SDS011;7461;52.440;13.540;2022-10-17T10:18:45;4.70;;;4.30;;
14738;SDS011;7461;52.440;13.540;2022-10-17T10:21:15;4.63;;;4.30;;
14738;SDS011;7461;52.440;13.540;2022-10-17T10:23:44;4.85;;;4.45;;
14738;SDS011;7461;52.440;13.540;2022-10-17T10:26:28;4.03;;;3.63;;
14738;SDS011;7461;52.440;13.540;2022-10-17T10:29:03;6.25;;;4.10;;
14738;SDS011;7461;52.440;13.540;2022-10-17T10:31:33;4.20;;;3.90;;
14738;SDS011;7461;52.440;13.540;2022-10-17T10:34:13;4.78;;;4.47;;
14738;SDS011;7461;52.440;13.540;2022-10-17T10:39:42;5.88;;;4.60;;
14738;SDS011;7461;52.440;13.540;2022-10-17T10:42:20;4.07;;;3.63;;
14738;SDS011;7461;52.440;13.540;2022-10-17T10:44:53;4.57;;;4.28;;
14738;SDS011;7461;52.440;13.540;2022-10-17T10:47:23;4.90;;;4.50;;
14738;SDS011;7461;52.440;13.540;2022-10-17T10:50:05;5.80;;;5.30;;
14738;SDS011;7461;52.440;13.540;2022-10-17T10:52:36;4.05;;;3.85;;
14738;SDS011;7461;52.440;13.540;2022-10-17T10:55:13;4.70;;;4.50;;
14738;SDS011;7461;52.440;13.540;2022-10-17T10:57:48;4.13;;;3.83;;
14738;SDS011;7461;52.440;13.540;2022-10-17T11:00:19;3.65;;;3.40;;
14738;SDS011;7461;52.440;13.540;2022-10-17T11:02:51;3.35;;;3.05;;
14738;SDS011;7461;52.440;13.540;2022-10-17T11:05:31;3.50;;;3.30;;
14738;SDS011;7461;52.440;13.540;2022-10-17T11:08:05;4.20;;;3.90;;
14738;SDS011;7461;52.440;13.540;2022-10-17T11:10:40;4.25;;;3.95;;
14738;SDS011;7461;52.440;13.540;2022-10-17T11:13:14;3.78;;;3.28;;
14738;SDS011;7461;52.440;13.540;2022-10-17T11:15:47;3.90;;;3.70;;
14738;SDS011;7461;52.440;13.540;2022-10-17T11:18:21;4.57;;;4.13;;
14738;SDS011;7461;52.440;13.540;2022-10-17T11:20:53;4.88;;;4.55;;
14738;SDS011;7461;52.440;13.540;2022-10-17T11:23:23;5.05;;;4.50;;
14738;SDS011;7461;52.440;13.540;2022-10-17T11:26:00;4.82;;;4.40;;
14738;SDS011;7461;52.440;13.540;2022-10-17T11:28:30;5.15;;;4.47;;
14738;SDS011;7461;52.440;13.540;2022-10-17T11:30:58;4.95;;;4.55;;
14738;SDS011;7461;52.440;13.540;2022-10-17T11:33:29;5.63;;;5.22;;
14738;SDS011;7461;52.440;13.540;2022-10-17T11:36:06;8.00;;;5.53;;
14738;SDS011;7461;52.440;13.540;2022-10-17T11:38:37;5.45;;;5.13;;
14738;SDS011;7461;52.440;13.540;2022-10-17T11:41:08;5.57;;;5.28;;
14738;SDS011;7461;52.440;13.540;2022-10-17T11:43:39;5.95;;;5.55;;
14738;SDS011;7461;52.440;13.540;2022-10-17T11:46:13;6.25;;;5.85;;
14738;SDS011;7461;52.440;13.540;2022-10-17T11:48:54;5.93;;;5.53;;
14738;SDS011;7461;52.440;13.540;2022-10-17T11:51:28;7.57;;;6.43;;
14738;SDS011;7461;52.440;13.540;2022-10-17T11:54:01;6.10;;;5.50;;
14738;SDS011;7461;52.440;13.540;2022-10-17T11:56:36;5.40;;;5.10;;
14738;SDS011;7461;52.440;13.540;2022-10-17T11:59:13;6.07;;;5.78;;
14738;SDS011;7461;52.440;13.540;2022-10-17T12:01:55;7.10;;;6.60;;
14738;SDS011;7461;52.440;13.540;2022-10-17T12:04:30;6.70;;;6.10;;
14738;SDS011;7461;52.440;13.540;2022-10-17T12:07:13;6.60;;;6.10;;
14738;SDS011;7461;52.440;13.540;2022-10-17T12:09:45;6.20;;;5.60;;
14738;SDS011;7461;52.440;13.540;2022-10-17T12:12:24;6.57;;;6.18;;
14738;SDS011;7461;52.440;13.540;2022-10-17T12:14:52;6.07;;;5.78;;
14738;SDS011;7461;52.440;13.540;2022-10-17T12:17:26;6.65;;;6.10;;
14738;SDS011;7461;52.440;13.540;2022-10-17T12:22:54;5.80;;;5.43;;
14738;SDS011;7461;52.440;13.540;2022-10-17T12:25:24;6.43;;;5.45;;
14738;SDS011;7461;52.440;13.540;2022-10-17T12:30:51;6.40;;;6.00;;
14738;SDS011;7461;52.440;13.540;2022-10-17T12:33:25;7.13;;;6.63;;
14738;SDS011;7461;52.440;13.540;2022-10-17T12:42:32;6.55;;;6.20;;
14738;SDS011;7461;52.440;13.540;2022-10-17T12:51:23;6.80;;;6.40;;
14738;SDS011;7461;52.440;13.540;2022-10-17T12:53:52;7.13;;;6.63;;
14738;SDS011;7461;52.440;13.540;2022-10-17T12:56:29;7.72;;;7.20;;
14738;SDS011;7461;52.440;13.540;2022-10-17T12:59:01;5.35;;;4.93;;
14738;SDS011;7461;52.440;13.540;2022-10-17T13:01:35;5.57;;;5.18;;
14738;SDS011;7461;52.440;13.540;2022-10-17T13:04:04;7.70;;;5.10;;
14738;SDS011;7461;52.440;13.540;2022-10-17T13:06:35;5.07;;;4.53;;
14738;SDS011;7461;52.440;13.540;2022-10-17T13:09:14;6.18;;;5.47;;
14738;SDS011;7461;52.440;13.540;2022-10-17T13:11:47;5.25;;;4.75;;
14738;SDS011;7461;52.440;13.540;2022-10-17T13:14:17;5.43;;;5.03;;
14738;SDS011;7461;52.440;13.540;2022-10-17T13:16:50;4.40;;;3.83;;
14738;SDS011;7461;52.440;13.540;2022-10-17T13:19:18;5.15;;;4.75;;
14738;SDS011;7461;52.440;13.540;2022-10-17T13:21:51;5.93;;;5.50;;
14738;SDS011;7461;52.440;13.540;2022-10-17T13:24:20;4.60;;;4.30;;
14738;SDS011;7461;52.440;13.540;2022-10-17T13:26:52;5.28;;;4.75;;
14738;SDS011;7461;52.440;13.540;2022-10-17T13:29:21;5.30;;;5.00;;
14738;SDS011;7461;52.440;13.540;2022-10-17T13:31:50;4.78;;;4.38;;
14738;SDS011;7461;52.440;13.540;2022-10-17T13:34:19;5.15;;;4.85;;
14738;SDS011;7461;52.440;13.540;2022-10-17T13:36:49;4.78;;;4.30;;
14738;SDS011;7461;52.440;13.540;2022-10-17T13:39:20;4.78;;;4.47;;
14738;SDS011;7461;52.440;13.540;2022-10-17T13:41:49;5.00;;;4.70;;
14738;SDS011;7461;52.440;13.540;2022-10-17T13:44:18;4.45;;;4.15;;
14738;SDS011;7461;52.440;13.540;2022-10-17T13:46:48;4.80;;;4.43;;
14738;SDS011;7461;52.440;13.540;2022-10-17T13:49:17;6.85;;;4.78;;
14738;SDS011;7461;52.440;13.540;2022-10-17T13:51:47;4.28;;;3.97;;
14738;SDS011;7461;52.440;13.540;2022-10-17T13:54:17;5.75;;;5.22;;
14738;SDS011;7461;52.440;13.540;2022-10-17T13:56:54;5.22;;;4.82;;
14738;SDS011;7461;52.440;13.540;2022-10-17T13:59:27;5.57;;;5.28;;
14738;SDS011;7461;52.440;13.540;2022-10-17T14:01:59;5.78;;;5.15;;
14738;SDS011;7461;52.440;13.540;2022-10-17T14:04:27;6.05;;;5.43;;
14738;SDS011;7461;52.440;13.540;2022-10-17T14:06:54;6.22;;;5.63;;
14738;SDS011;7461;52.440;13.540;2022-10-17T14:09:22;7.85;;;4.68;;
14738;SDS011;7461;52.440;13.540;2022-10-17T14:11:55;5.22;;;4.80;;
14738;SDS011;7461;52.440;13.540;2022-10-17T14:14:27;4.00;;;3.70;;
14738;SDS011;7461;52.440;13.540;2022-10-17T14:16:55;4.85;;;4.45;;
14738;SDS011;7461;52.440;13.540;2022-10-17T14:19:24;5.07;;;4.68;;
14738;SDS011;7461;52.440;13.540;2022-10-17T14:21:53;4.65;;;4.40;;
14738;SDS011;7461;52.440;13.540;2022-10-17T14:24:26;6.03;;;5.53;;
14738;SDS011;7461;52.440;13.540;2022-10-17T14:26:55;5.40;;;4.95;;
14738;SDS011;7461;52.440;13.540;2022-10-17T14:29:24;5.07;;;4.78;;
14738;SDS011;7461;52.440;13.540;2022-10-17T14:31:57;7.38;;;5.03;;
14738;SDS011;7461;52.440;13.540;2022-10-17T14:34:27;6.18;;;5.22;;
14738;SDS011;7461;52.440;13.540;2022-10-17T14:36:58;5.18;;;4.78;;
14738;SDS011;7461;52.440;13.540;2022-10-17T14:39:26;5.03;;;4.57;;
14738;SDS011;7461;52.440;13.540;2022-10-17T14:41:53;5.78;;;4.22;;
14738;SDS011;7461;52.440;13.540;2022-10-17T14:44:22;5.43;;;4.93;;
14738;SDS011;7461;52.440;13.540;2022-10-17T14:46:53;6.25;;;5.75;;
14738;SDS011;7461;52.440;13.540;2022-10-17T14:49:26;5.78;;;5.38;;
14738;SDS011;7461;52.440;13.540;2022-10-17T14:52:10;6.78;;;6.13;;
14738;SDS011;7461;52.440;13.540;2022-10-17T14:54:49;4.97;;;4.63;;
14738;SDS011;7461;52.440;13.540;2022-10-17T14:57:16;4.85;;;4.55;;
14738;SDS011;7461;52.440;13.540;2022-10-17T14:59:47;5.68;;;5.18;;
14738;SDS011;7461;52.440;13.540;2022-10-17T15:02:15;5.75;;;5.35;;
14738;SDS011;7461;52.440;13.540;2022-10-17T15:04:42;4.28;;;3.97;;
14738;SDS011;7461;52.440;13.540;2022-10-17T15:07:11;4.18;;;3.97;;
14738;SDS011;7461;52.440;13.540;2022-10-17T15:09:39;4.78;;;4.38;;
14738;SDS011;7461;52.440;13.540;2022-10-17T15:12:06;5.90;;;5.50;;
14738;SDS011;7461;52.440;13.540;2022-10-17T15:14:39;5.78;;;5.13;;
14738;SDS011;7461;52.440;13.540;2022-10-17T15:17:09;6.03;;;5.47;;
14738;SDS011;7461;52.440;13.540;2022-10-17T15:19:40;6.60;;;6.10;;
14738;SDS011;7461;52.440;13.540;2022-10-17T15:22:07;7.00;;;6.20;;
14738;SDS011;7461;52.440;13.540;2022-10-17T15:24:35;5.68;;;5.10;;
14738;SDS011;7461;52.440;13.540;2022-10-17T15:27:03;5.13;;;4.82;;
14738;SDS011;7461;52.440;13.540;2022-10-17T15:29:39;9.02;;;8.15;;
14738;SDS011;7461;52.440;13.540;2022-10-17T15:32:06;6.38;;;5.88;;